Ventero, New Mexico
Current Conditions -  °F | °C
As of 2:55 PM on Saturday 25 Oct 2014 (Local Time) from KSKX Reporting Station
Clear Clear  
Wind Chill: 73°   Ceiling: Unl
Heat Index: 73°   Visibility: 10mi
Dew Point: 19°   Wind: 8mph
Humidity: 13%   Direction: 260°W
Pressure: 30.3"   Gusts: NA
Location:  36.9654°N, 105.429°W
Report Text: KSKX 252055Z AUTO 26007KT 10SM CLR 23/M07 A3030 RMK AO1 57027
Loading
Personal Weather Stations






























Interactive Weather Map
Tropical Storm Tracking
New forecast layout! Learn more

10-Day Weather Forecast

Advertisements
Track Severe Weather on mobile